sensor_id;sensor_type;location;lat;lon;timestamp;temperature;humidity
18426;DHT22;9340;48.756;9.226;2024-01-15T00:02:04;0.20;99.90
18426;DHT22;9340;48.756;9.226;2024-01-15T00:04:35;0.20;99.90
18426;DHT22;9340;48.756;9.226;2024-01-15T00:07:02;0.30;99.90
18426;DHT22;9340;48.756;9.226;2024-01-15T00:09:29;0.40;99.90
18426;DHT22;9340;48.756;9.226;2024-01-15T00:11:56;0.40;99.90
18426;DHT22;9340;48.756;9.226;2024-01-15T00:14:22;0.30;99.90
18426;DHT22;9340;48.756;9.226;2024-01-15T00:16:49;0.20;99.90
18426;DHT22;9340;48.756;9.226;2024-01-15T00:19:18;0.20;99.90
18426;DHT22;9340;48.756;9.226;2024-01-15T00:21:44;0.10;99.90
18426;DHT22;9340;48.756;9.226;2024-01-15T00:24:11;0.10;99.90
18426;DHT22;9340;48.756;9.226;2024-01-15T00:26:38;0.00;99.90
18426;DHT22;9340;48.756;9.226;2024-01-15T00:29:06;-0.10;99.90
18426;DHT22;9340;48.756;9.226;2024-01-15T00:31:33;-0.20;99.90
18426;DHT22;9340;48.756;9.226;2024-01-15T00:34:00;-0.30;99.90
18426;DHT22;9340;48.756;9.226;2024-01-15T00:36:28;-0.40;99.90
18426;DHT22;9340;48.756;9.226;2024-01-15T00:38:55;-0.40;99.90
18426;DHT22;9340;48.756;9.226;2024-01-15T00:41:21;-0.50;99.90
18426;DHT22;9340;48.756;9.226;2024-01-15T00:43:48;-0.60;99.90
18426;DHT22;9340;48.756;9.226;2024-01-15T00:46:15;-0.60;99.90
18426;DHT22;9340;48.756;9.226;2024-01-15T00:48:42;-0.60;99.90
18426;DHT22;9340;48.756;9.226;2024-01-15T00:51:09;-0.60;99.90
18426;DHT22;9340;48.756;9.226;2024-01-15T00:53:37;-0.60;99.90
18426;DHT22;9340;48.756;9.226;2024-01-15T00:56:04;-0.70;99.90
18426;DHT22;9340;48.756;9.226;2024-01-15T00:58:30;-0.80;99.90
18426;DHT22;9340;48.756;9.226;2024-01-15T01:00:57;-0.80;99.90
18426;DHT22;9340;48.756;9.226;2024-01-15T01:03:24;-0.80;99.90
18426;DHT22;9340;48.756;9.226;2024-01-15T01:05:50;-0.80;99.90
18426;DHT22;9340;48.756;9.226;2024-01-15T01:08:17;-0.90;99.90
18426;DHT22;9340;48.756;9.226;2024-01-15T01:10:45;-0.90;99.90
18426;DHT22;9340;48.756;9.226;2024-01-15T01:13:12;-0.90;99.90
18426;DHT22;9340;48.756;9.226;2024-01-15T01:15:38;-0.80;99.90
18426;DHT22;9340;48.756;9.226;2024-01-15T01:18:05;-0.70;99.90
18426;DHT22;9340;48.756;9.226;2024-01-15T01:20:32;-0.70;99.90
18426;DHT22;9340;48.756;9.226;2024-01-15T01:22:59;-0.50;99.90
18426;DHT22;9340;48.756;9.226;2024-01-15T01:25:25;-0.50;99.90
18426;DHT22;9340;48.756;9.226;2024-01-15T01:27:53;-0.50;99.90
18426;DHT22;9340;48.756;9.226;2024-01-15T01:30:20;-0.30;99.90
18426;DHT22;9340;48.756;9.226;2024-01-15T01:32:47;-0.30;99.90
18426;DHT22;9340;48.756;9.226;2024-01-15T01:35:13;-0.20;99.90
18426;DHT22;9340;48.756;9.226;2024-01-15T01:37:40;-0.10;99.90
18426;DHT22;9340;48.756;9.226;2024-01-15T01:40:08;-0.10;99.90
18426;DHT22;9340;48.756;9.226;2024-01-15T01:42:34;0.00;99.90
18426;DHT22;9340;48.756;9.226;2024-01-15T01:45:03;0.00;99.90
18426;DHT22;9340;48.756;9.226;2024-01-15T01:47:30;0.00;99.90
18426;DHT22;9340;48.756;9.226;2024-01-15T01:49:57;0.10;99.90
18426;DHT22;9340;48.756;9.226;2024-01-15T01:52:24;0.20;99.90
18426;DHT22;9340;48.756;9.226;2024-01-15T01:54:51;0.30;99.90
18426;DHT22;9340;48.756;9.226;2024-01-15T01:57:18;0.40;99.90
18426;DHT22;9340;48.756;9.226;2024-01-15T01:59:46;0.40;99.90
18426;DHT22;9340;48.756;9.226;2024-01-15T02:02:15;0.50;99.90
18426;DHT22;9340;48.756;9.226;2024-01-15T02:04:43;0.50;99.90
18426;DHT22;9340;48.756;9.226;2024-01-15T02:07:09;0.50;99.90
18426;DHT22;9340;48.756;9.226;2024-01-15T02:09:36;0.40;99.90
18426;DHT22;9340;48.756;9.226;2024-01-15T02:12:04;0.40;99.90
18426;DHT22;9340;48.756;9.226;2024-01-15T02:14:31;0.40;99.90
18426;DHT22;9340;48.756;9.226;2024-01-15T02:16:57;0.40;99.90
18426;DHT22;9340;48.756;9.226;2024-01-15T02:19:25;0.40;99.90
18426;DHT22;9340;48.756;9.226;2024-01-15T02:21:52;0.30;99.90
18426;DHT22;9340;48.756;9.226;2024-01-15T02:24:20;0.20;99.90
18426;DHT22;9340;48.756;9.226;2024-01-15T02:26:47;0.20;99.90
18426;DHT22;9340;48.756;9.226;2024-01-15T02:29:14;0.20;99.90
18426;DHT22;9340;48.756;9.226;2024-01-15T02:31:41;0.10;99.90
18426;DHT22;9340;48.756;9.226;2024-01-15T02:34:07;0.10;99.90
18426;DHT22;9340;48.756;9.226;2024-01-15T02:36:34;0.10;99.90
18426;DHT22;9340;48.756;9.226;2024-01-15T02:39:01;0.00;99.90
18426;DHT22;9340;48.756;9.226;2024-01-15T02:41:29;0.00;99.90
18426;DHT22;9340;48.756;9.226;2024-01-15T02:43:55;0.00;99.90
18426;DHT22;9340;48.756;9.226;2024-01-15T02:46:22;-0.10;99.90
18426;DHT22;9340;48.756;9.226;2024-01-15T02:48:49;-0.10;99.90
18426;DHT22;9340;48.756;9.226;2024-01-15T02:51:16;-0.20;99.90
18426;DHT22;9340;48.756;9.226;2024-01-15T02:53:42;-0.20;99.90
18426;DHT22;9340;48.756;9.226;2024-01-15T02:56:09;-0.30;99.90
18426;DHT22;9340;48.756;9.226;2024-01-15T02:58:37;-0.40;99.90
18426;DHT22;9340;48.756;9.226;2024-01-15T03:01:04;-0.50;99.90
18426;DHT22;9340;48.756;9.226;2024-01-15T03:03:30;-0.50;99.90
18426;DHT22;9340;48.756;9.226;2024-01-15T03:05:58;-0.60;99.90
18426;DHT22;9340;48.756;9.226;2024-01-15T03:08:25;-0.70;99.90
18426;DHT22;9340;48.756;9.226;2024-01-15T03:10:51;-0.90;99.90
18426;DHT22;9340;48.756;9.226;2024-01-15T03:13:18;-0.90;99.90
18426;DHT22;9340;48.756;9.226;2024-01-15T03:15:46;-1.00;99.90
18426;DHT22;9340;48.756;9.226;2024-01-15T03:18:13;-1.10;99.90
18426;DHT22;9340;48.756;9.226;2024-01-15T03:20:40;-1.10;99.90
18426;DHT22;9340;48.756;9.226;2024-01-15T03:23:06;-1.20;99.90
18426;DHT22;9340;48.756;9.226;2024-01-15T03:25:33;-1.30;99.90
18426;DHT22;9340;48.756;9.226;2024-01-15T03:28:00;-1.30;99.90
18426;DHT22;9340;48.756;9.226;2024-01-15T03:30:26;-1.40;99.90
18426;DHT22;9340;48.756;9.226;2024-01-15T03:32:55;-1.40;99.90
18426;DHT22;9340;48.756;9.226;2024-01-15T03:35:21;-1.50;99.90
18426;DHT22;9340;48.756;9.226;2024-01-15T03:37:48;-1.50;99.90
18426;DHT22;9340;48.756;9.226;2024-01-15T03:40:15;-1.50;99.90
18426;DHT22;9340;48.756;9.226;2024-01-15T03:42:41;-1.60;99.90
18426;DHT22;9340;48.756;9.226;2024-01-15T03:45:08;-1.60;99.90
18426;DHT22;9340;48.756;9.226;2024-01-15T03:47:35;-1.60;99.90
18426;DHT22;9340;48.756;9.226;2024-01-15T03:50:04;-1.70;99.90
18426;DHT22;9340;48.756;9.226;2024-01-15T03:52:30;-1.70;99.90
18426;DHT22;9340;48.756;9.226;2024-01-15T03:54:57;-1.70;99.90
18426;DHT22;9340;48.756;9.226;2024-01-15T03:57:24;-1.60;99.90
18426;DHT22;9340;48.756;9.226;2024-01-15T03:59:51;-1.80;99.90
18426;DHT22;9340;48.756;9.226;2024-01-15T04:02:17;-1.70;99.90
18426;DHT22;9340;48.756;9.226;2024-01-15T04:04:44;-1.50;99.90
18426;DHT22;9340;48.756;9.226;2024-01-15T04:07:12;-1.40;99.90
18426;DHT22;9340;48.756;9.226;2024-01-15T04:09:39;-1.40;99.90
18426;DHT22;9340;48.756;9.226;2024-01-15T04:12:06;-1.20;99.90
18426;DHT22;9340;48.756;9.226;2024-01-15T04:14:32;-1.20;99.90
18426;DHT22;9340;48.756;9.226;2024-01-15T04:16:59;-1.10;99.90
18426;DHT22;9340;48.756;9.226;2024-01-15T04:19:26;-1.10;99.90
18426;DHT22;9340;48.756;9.226;2024-01-15T04:21:52;-1.00;99.90
18426;DHT22;9340;48.756;9.226;2024-01-15T04:24:20;-0.90;99.90
18426;DHT22;9340;48.756;9.226;2024-01-15T04:26:47;-0.80;99.90
18426;DHT22;9340;48.756;9.226;2024-01-15T04:29:15;-0.90;99.90
18426;DHT22;9340;48.756;9.226;2024-01-15T04:31:41;-0.80;99.90
18426;DHT22;9340;48.756;9.226;2024-01-15T04:34:08;-0.70;99.90
18426;DHT22;9340;48.756;9.226;2024-01-15T04:36:38;-0.50;99.90
18426;DHT22;9340;48.756;9.226;2024-01-15T04:39:05;-0.30;99.90
18426;DHT22;9340;48.756;9.226;2024-01-15T04:41:34;-0.20;99.90
18426;DHT22;9340;48.756;9.226;2024-01-15T04:44:00;-0.10;99.90
18426;DHT22;9340;48.756;9.226;2024-01-15T04:46:27;0.00;99.90
18426;DHT22;9340;48.756;9.226;2024-01-15T04:48:54;0.10;99.90
18426;DHT22;9340;48.756;9.226;2024-01-15T04:51:20;0.20;99.90
18426;DHT22;9340;48.756;9.226;2024-01-15T04:53:47;0.30;99.90
18426;DHT22;9340;48.756;9.226;2024-01-15T04:56:13;0.40;99.90
18426;DHT22;9340;48.756;9.226;2024-01-15T04:58:41;0.40;99.90
18426;DHT22;9340;48.756;9.226;2024-01-15T05:01:08;0.60;99.90
18426;DHT22;9340;48.756;9.226;2024-01-15T05:03:35;0.60;99.90
18426;DHT22;9340;48.756;9.226;2024-01-15T05:06:02;0.70;99.90
18426;DHT22;9340;48.756;9.226;2024-01-15T05:08:29;0.80;99.90
18426;DHT22;9340;48.756;9.226;2024-01-15T05:10:55;0.80;99.90
18426;DHT22;9340;48.756;9.226;2024-01-15T05:13:22;0.90;99.90
18426;DHT22;9340;48.756;9.226;2024-01-15T05:15:50;0.90;99.90
18426;DHT22;9340;48.756;9.226;2024-01-15T05:18:17;0.90;99.90
18426;DHT22;9340;48.756;9.226;2024-01-15T05:20:44;1.00;99.90
18426;DHT22;9340;48.756;9.226;2024-01-15T05:23:10;0.90;99.90
18426;DHT22;9340;48.756;9.226;2024-01-15T05:25:37;0.90;99.90
18426;DHT22;9340;48.756;9.226;2024-01-15T05:28:05;1.00;99.90
18426;DHT22;9340;48.756;9.226;2024-01-15T05:30:31;1.00;99.90
18426;DHT22;9340;48.756;9.226;2024-01-15T05:32:59;1.00;99.90
18426;DHT22;9340;48.756;9.226;2024-01-15T05:35:26;1.00;99.90
18426;DHT22;9340;48.756;9.226;2024-01-15T05:37:53;1.00;99.90
18426;DHT22;9340;48.756;9.226;2024-01-15T05:40:20;1.00;99.90
18426;DHT22;9340;48.756;9.226;2024-01-15T05:42:46;1.00;99.90
18426;DHT22;9340;48.756;9.226;2024-01-15T05:45:13;1.10;99.90
18426;DHT22;9340;48.756;9.226;2024-01-15T05:47:39;1.10;99.90
18426;DHT22;9340;48.756;9.226;2024-01-15T05:50:08;1.10;99.90
18426;DHT22;9340;48.756;9.226;2024-01-15T05:52:35;1.10;99.90
18426;DHT22;9340;48.756;9.226;2024-01-15T05:55:02;1.10;99.90
18426;DHT22;9340;48.756;9.226;2024-01-15T05:57:29;1.10;99.90
18426;DHT22;9340;48.756;9.226;2024-01-15T05:59:56;1.10;99.90
18426;DHT22;9340;48.756;9.226;2024-01-15T06:02:22;1.10;99.90
18426;DHT22;9340;48.756;9.226;2024-01-15T06:04:49;1.20;99.90
18426;DHT22;9340;48.756;9.226;2024-01-15T06:07:17;1.10;99.90
18426;DHT22;9340;48.756;9.226;2024-01-15T06:09:44;1.10;99.90
18426;DHT22;9340;48.756;9.226;2024-01-15T06:12:10;1.10;99.90
18426;DHT22;9340;48.756;9.226;2024-01-15T06:14:37;1.10;99.90
18426;DHT22;9340;48.756;9.226;2024-01-15T06:17:04;1.10;99.90
18426;DHT22;9340;48.756;9.226;2024-01-15T06:19:31;1.10;99.90
18426;DHT22;9340;48.756;9.226;2024-01-15T06:21:57;1.10;99.90
18426;DHT22;9340;48.756;9.226;2024-01-15T06:24:25;1.10;99.90
18426;DHT22;9340;48.756;9.226;2024-01-15T06:26:52;1.10;99.90
18426;DHT22;9340;48.756;9.226;2024-01-15T06:29:19;1.10;99.90
18426;DHT22;9340;48.756;9.226;2024-01-15T06:31:45;1.10;99.90
18426;DHT22;9340;48.756;9.226;2024-01-15T06:34:12;1.10;99.90
18426;DHT22;9340;48.756;9.226;2024-01-15T06:36:39;1.10;99.90
18426;DHT22;9340;48.756;9.226;2024-01-15T06:39:05;1.10;99.90
18426;DHT22;9340;48.756;9.226;2024-01-15T06:41:33;1.10;99.90
18426;DHT22;9340;48.756;9.226;2024-01-15T06:44:00;1.10;99.90
18426;DHT22;9340;48.756;9.226;2024-01-15T06:46:27;1.10;99.90
18426;DHT22;9340;48.756;9.226;2024-01-15T06:48:53;1.10;99.90
18426;DHT22;9340;48.756;9.226;2024-01-15T06:51:20;1.10;99.90
18426;DHT22;9340;48.756;9.226;2024-01-15T06:53:47;1.10;99.90
18426;DHT22;9340;48.756;9.226;2024-01-15T06:56:13;1.10;99.90
18426;DHT22;9340;48.756;9.226;2024-01-15T06:58:41;1.10;99.90
18426;DHT22;9340;48.756;9.226;2024-01-15T07:01:08;1.20;99.90
18426;DHT22;9340;48.756;9.226;2024-01-15T07:03:35;1.10;99.90
18426;DHT22;9340;48.756;9.226;2024-01-15T07:06:02;1.10;99.90
18426;DHT22;9340;48.756;9.226;2024-01-15T07:08:29;1.10;99.90
18426;DHT22;9340;48.756;9.226;2024-01-15T07:10:56;1.20;99.90
18426;DHT22;9340;48.756;9.226;2024-01-15T07:13:22;1.20;99.90
18426;DHT22;9340;48.756;9.226;2024-01-15T07:15:50;1.20;99.90
18426;DHT22;9340;48.756;9.226;2024-01-15T07:18:17;1.30;99.90
18426;DHT22;9340;48.756;9.226;2024-01-15T07:20:44;1.30;99.90
18426;DHT22;9340;48.756;9.226;2024-01-15T07:23:10;1.30;99.90
18426;DHT22;9340;48.756;9.226;2024-01-15T07:25:37;1.30;99.90
18426;DHT22;9340;48.756;9.226;2024-01-15T07:28:04;1.30;99.90
18426;DHT22;9340;48.756;9.226;2024-01-15T07:30:31;1.40;99.90
18426;DHT22;9340;48.756;9.226;2024-01-15T07:32:59;1.30;99.90
18426;DHT22;9340;48.756;9.226;2024-01-15T07:35:26;1.40;99.90
18426;DHT22;9340;48.756;9.226;2024-01-15T07:37:53;1.40;99.90
18426;DHT22;9340;48.756;9.226;2024-01-15T07:40:20;1.40;99.90
18426;DHT22;9340;48.756;9.226;2024-01-15T07:42:46;1.50;99.90
18426;DHT22;9340;48.756;9.226;2024-01-15T07:45:13;1.50;99.90
18426;DHT22;9340;48.756;9.226;2024-01-15T07:47:40;1.50;99.90
18426;DHT22;9340;48.756;9.226;2024-01-15T07:50:08;1.50;99.90
18426;DHT22;9340;48.756;9.226;2024-01-15T07:52:34;1.60;99.90
18426;DHT22;9340;48.756;9.226;2024-01-15T07:55:01;1.60;99.90
18426;DHT22;9340;48.756;9.226;2024-01-15T07:57:29;1.60;99.90
18426;DHT22;9340;48.756;9.226;2024-01-15T07:59:55;1.60;99.90
18426;DHT22;9340;48.756;9.226;2024-01-15T08:02:22;1.60;99.90
18426;DHT22;9340;48.756;9.226;2024-01-15T08:04:49;1.70;99.90
18426;DHT22;9340;48.756;9.226;2024-01-15T08:07:17;1.70;99.90
18426;DHT22;9340;48.756;9.226;2024-01-15T08:09:44;1.70;99.90
18426;DHT22;9340;48.756;9.226;2024-01-15T08:12:13;1.70;99.90
18426;DHT22;9340;48.756;9.226;2024-01-15T08:14:39;1.70;99.90
18426;DHT22;9340;48.756;9.226;2024-01-15T08:17:06;1.80;99.90
18426;DHT22;9340;48.756;9.226;2024-01-15T08:19:33;1.80;99.90
18426;DHT22;9340;48.756;9.226;2024-01-15T08:22:00;1.90;99.90
18426;DHT22;9340;48.756;9.226;2024-01-15T08:24:28;1.90;99.90
18426;DHT22;9340;48.756;9.226;2024-01-15T08:26:54;1.90;99.90
18426;DHT22;9340;48.756;9.226;2024-01-15T08:29:21;2.00;99.90
18426;DHT22;9340;48.756;9.226;2024-01-15T08:31:50;2.00;99.90
18426;DHT22;9340;48.756;9.226;2024-01-15T08:34:17;2.00;99.90
18426;DHT22;9340;48.756;9.226;2024-01-15T08:36:43;2.10;99.90
18426;DHT22;9340;48.756;9.226;2024-01-15T08:39:10;2.10;99.90
18426;DHT22;9340;48.756;9.226;2024-01-15T08:41:38;2.20;99.90
18426;DHT22;9340;48.756;9.226;2024-01-15T08:44:04;2.20;99.90
18426;DHT22;9340;48.756;9.226;2024-01-15T08:46:31;2.30;99.90
18426;DHT22;9340;48.756;9.226;2024-01-15T08:48:58;2.40;99.90
18426;DHT22;9340;48.756;9.226;2024-01-15T08:51:24;2.50;99.90
18426;DHT22;9340;48.756;9.226;2024-01-15T08:53:51;2.60;99.90
18426;DHT22;9340;48.756;9.226;2024-01-15T08:56:18;2.70;99.90
18426;DHT22;9340;48.756;9.226;2024-01-15T08:58:46;2.80;99.90
18426;DHT22;9340;48.756;9.226;2024-01-15T09:01:13;2.80;99.90
18426;DHT22;9340;48.756;9.226;2024-01-15T09:03:40;2.90;99.90
18426;DHT22;9340;48.756;9.226;2024-01-15T09:06:07;2.90;99.90
18426;DHT22;9340;48.756;9.226;2024-01-15T09:08:35;2.90;99.90
18426;DHT22;9340;48.756;9.226;2024-01-15T09:11:02;2.90;99.90
18426;DHT22;9340;48.756;9.226;2024-01-15T09:13:29;3.00;99.90
18426;DHT22;9340;48.756;9.226;2024-01-15T09:15:58;3.20;99.90
18426;DHT22;9340;48.756;9.226;2024-01-15T09:18:24;3.20;99.90
18426;DHT22;9340;48.756;9.226;2024-01-15T09:20:51;3.20;99.90
18426;DHT22;9340;48.756;9.226;2024-01-15T09:23:18;3.20;99.90
18426;DHT22;9340;48.756;9.226;2024-01-15T09:25:44;3.10;99.90
18426;DHT22;9340;48.756;9.226;2024-01-15T09:28:11;3.10;99.90
18426;DHT22;9340;48.756;9.226;2024-01-15T09:30:38;3.10;99.90
18426;DHT22;9340;48.756;9.226;2024-01-15T09:33:06;3.20;99.90
18426;DHT22;9340;48.756;9.226;2024-01-15T09:35:32;3.30;99.90
18426;DHT22;9340;48.756;9.226;2024-01-15T09:37:59;3.40;99.90
18426;DHT22;9340;48.756;9.226;2024-01-15T09:40:31;3.40;99.90
18426;DHT22;9340;48.756;9.226;2024-01-15T09:42:58;3.30;99.90
18426;DHT22;9340;48.756;9.226;2024-01-15T09:45:25;3.40;99.90
18426;DHT22;9340;48.756;9.226;2024-01-15T09:47:52;3.50;99.90
18426;DHT22;9340;48.756;9.226;2024-01-15T09:50:20;3.50;99.90
18426;DHT22;9340;48.756;9.226;2024-01-15T09:52:48;3.60;99.90
18426;DHT22;9340;48.756;9.226;2024-01-15T09:55:17;3.50;99.90
18426;DHT22;9340;48.756;9.226;2024-01-15T09:57:44;3.60;99.90
18426;DHT22;9340;48.756;9.226;2024-01-15T10:00:12;3.60;99.90
18426;DHT22;9340;48.756;9.226;2024-01-15T10:02:39;3.60;99.90
18426;DHT22;9340;48.756;9.226;2024-01-15T10:05:07;3.70;99.90
18426;DHT22;9340;48.756;9.226;2024-01-15T10:07:36;3.60;99.90
18426;DHT22;9340;48.756;9.226;2024-01-15T10:10:04;3.60;99.90
18426;DHT22;9340;48.756;9.226;2024-01-15T10:12:31;3.60;99.90
18426;DHT22;9340;48.756;9.226;2024-01-15T10:14:58;3.60;99.90
18426;DHT22;9340;48.756;9.226;2024-01-15T10:17:24;3.60;99.90
18426;DHT22;9340;48.756;9.226;2024-01-15T10:19:52;3.70;99.90
18426;DHT22;9340;48.756;9.226;2024-01-15T10:22:20;3.80;99.90
18426;DHT22;9340;48.756;9.226;2024-01-15T10:24:48;3.80;99.90
18426;DHT22;9340;48.756;9.226;2024-01-15T10:27:15;3.80;99.90
18426;DHT22;9340;48.756;9.226;2024-01-15T10:29:42;3.70;99.90
18426;DHT22;9340;48.756;9.226;2024-01-15T10:32:09;3.70;99.90
18426;DHT22;9340;48.756;9.226;2024-01-15T10:34:37;3.60;99.90
18426;DHT22;9340;48.756;9.226;2024-01-15T10:37:07;3.50;99.90
18426;DHT22;9340;48.756;9.226;2024-01-15T10:39:33;3.50;99.90
18426;DHT22;9340;48.756;9.226;2024-01-15T10:42:02;3.70;99.90
18426;DHT22;9340;48.756;9.226;2024-01-15T10:44:29;3.70;99.90
18426;DHT22;9340;48.756;9.226;2024-01-15T10:46:57;3.90;99.90
18426;DHT22;9340;48.756;9.226;2024-01-15T10:49:23;3.90;99.90
18426;DHT22;9340;48.756;9.226;2024-01-15T10:51:52;4.00;99.90
18426;DHT22;9340;48.756;9.226;2024-01-15T10:54:20;3.90;99.90
18426;DHT22;9340;48.756;9.226;2024-01-15T10:56:49;3.90;99.90
18426;DHT22;9340;48.756;9.226;2024-01-15T10:59:19;3.90;99.90
18426;DHT22;9340;48.756;9.226;2024-01-15T11:01:46;3.90;99.90
18426;DHT22;9340;48.756;9.226;2024-01-15T11:04:14;4.10;99.90
18426;DHT22;9340;48.756;9.226;2024-01-15T11:06:43;4.20;99.90
18426;DHT22;9340;48.756;9.226;2024-01-15T11:09:12;4.30;99.90
18426;DHT22;9340;48.756;9.226;2024-01-15T11:11:41;4.50;99.90
18426;DHT22;9340;48.756;9.226;2024-01-15T11:14:08;4.50;99.90
18426;DHT22;9340;48.756;9.226;2024-01-15T11:16:55;4.50;99.90
18426;DHT22;9340;48.756;9.226;2024-01-15T11:19:24;4.40;99.90
18426;DHT22;9340;48.756;9.226;2024-01-15T11:21:51;4.30;99.90
18426;DHT22;9340;48.756;9.226;2024-01-15T11:24:34;4.20;99.90
18426;DHT22;9340;48.756;9.226;2024-01-15T11:27:02;3.90;99.90
18426;DHT22;9340;48.756;9.226;2024-01-15T11:29:30;3.90;99.90
18426;DHT22;9340;48.756;9.226;2024-01-15T11:32:00;3.80;99.90
18426;DHT22;9340;48.756;9.226;2024-01-15T11:34:55;4.00;99.90
18426;DHT22;9340;48.756;9.226;2024-01-15T11:37:25;4.30;99.90
18426;DHT22;9340;48.756;9.226;2024-01-15T11:39:53;4.20;99.90
18426;DHT22;9340;48.756;9.226;2024-01-15T11:42:20;4.10;99.90
18426;DHT22;9340;48.756;9.226;2024-01-15T11:44:48;4.00;99.90
18426;DHT22;9340;48.756;9.226;2024-01-15T11:50:12;4.10;99.90
18426;DHT22;9340;48.756;9.226;2024-01-15T11:52:39;4.10;99.90
18426;DHT22;9340;48.756;9.226;2024-01-15T11:55:22;4.00;99.90
18426;DHT22;9340;48.756;9.226;2024-01-15T11:57:50;4.00;99.90
18426;DHT22;9340;48.756;9.226;2024-01-15T12:00:18;4.00;99.90
18426;DHT22;9340;48.756;9.226;2024-01-15T12:02:47;4.00;99.90
18426;DHT22;9340;48.756;9.226;2024-01-15T12:05:15;4.00;99.90
18426;DHT22;9340;48.756;9.226;2024-01-15T12:07:44;3.90;99.90
18426;DHT22;9340;48.756;9.226;2024-01-15T12:10:12;3.80;99.90
18426;DHT22;9340;48.756;9.226;2024-01-15T12:12:47;3.70;99.90
18426;DHT22;9340;48.756;9.226;2024-01-15T12:15:16;3.80;99.90
18426;DHT22;9340;48.756;9.226;2024-01-15T12:17:43;3.80;99.90
18426;DHT22;9340;48.756;9.226;2024-01-15T12:20:14;3.90;99.90
18426;DHT22;9340;48.756;9.226;2024-01-15T12:22:41;3.80;99.90
18426;DHT22;9340;48.756;9.226;2024-01-15T12:25:09;3.60;99.90
18426;DHT22;9340;48.756;9.226;2024-01-15T12:27:36;3.50;99.90
18426;DHT22;9340;48.756;9.226;2024-01-15T12:30:04;3.40;99.90
18426;DHT22;9340;48.756;9.226;2024-01-15T12:32:30;3.20;99.90
18426;DHT22;9340;48.756;9.226;2024-01-15T12:34:57;3.20;99.90
18426;DHT22;9340;48.756;9.226;2024-01-15T12:37:25;3.10;99.90
18426;DHT22;9340;48.756;9.226;2024-01-15T12:39:52;3.10;99.90
18426;DHT22;9340;48.756;9.226;2024-01-15T12:42:21;3.00;99.90
18426;DHT22;9340;48.756;9.226;2024-01-15T12:44:47;3.00;99.90
18426;DHT22;9340;48.756;9.226;2024-01-15T12:47:15;3.00;99.90
18426;DHT22;9340;48.756;9.226;2024-01-15T12:49:46;2.90;99.90
18426;DHT22;9340;48.756;9.226;2024-01-15T12:52:13;2.80;99.90
18426;DHT22;9340;48.756;9.226;2024-01-15T12:54:41;2.70;99.90
18426;DHT22;9340;48.756;9.226;2024-01-15T12:57:08;2.70;99.90
18426;DHT22;9340;48.756;9.226;2024-01-15T12:59:34;2.70;99.90
18426;DHT22;9340;48.756;9.226;2024-01-15T13:02:01;2.70;99.90
18426;DHT22;9340;48.756;9.226;2024-01-15T13:04:28;2.80;99.90
18426;DHT22;9340;48.756;9.226;2024-01-15T13:06:55;3.00;99.90
18426;DHT22;9340;48.756;9.226;2024-01-15T13:09:22;3.10;99.90
18426;DHT22;9340;48.756;9.226;2024-01-15T13:11:50;3.10;99.90
18426;DHT22;9340;48.756;9.226;2024-01-15T13:14:17;3.30;99.90
18426;DHT22;9340;48.756;9.226;2024-01-15T13:16:44;3.30;99.90
18426;DHT22;9340;48.756;9.226;2024-01-15T13:19:11;3.30;99.90
18426;DHT22;9340;48.756;9.226;2024-01-15T13:21:38;3.20;99.90
18426;DHT22;9340;48.756;9.226;2024-01-15T13:24:05;3.10;99.90
18426;DHT22;9340;48.756;9.226;2024-01-15T13:26:32;3.00;99.90
18426;DHT22;9340;48.756;9.226;2024-01-15T13:29:01;2.90;99.90
18426;DHT22;9340;48.756;9.226;2024-01-15T13:31:29;2.90;99.90
18426;DHT22;9340;48.756;9.226;2024-01-15T13:33:55;2.80;99.90
18426;DHT22;9340;48.756;9.226;2024-01-15T13:36:22;2.90;99.90
18426;DHT22;9340;48.756;9.226;2024-01-15T13:38:49;2.90;99.90
18426;DHT22;9340;48.756;9.226;2024-01-15T13:41:16;2.90;99.90
18426;DHT22;9340;48.756;9.226;2024-01-15T13:43:44;2.90;99.90
18426;DHT22;9340;48.756;9.226;2024-01-15T13:46:12;2.90;99.90
18426;DHT22;9340;48.756;9.226;2024-01-15T13:48:39;2.80;99.90
18426;DHT22;9340;48.756;9.226;2024-01-15T13:51:06;2.80;99.90
18426;DHT22;9340;48.756;9.226;2024-01-15T13:53:32;2.80;99.90
18426;DHT22;9340;48.756;9.226;2024-01-15T13:55:59;2.90;99.90
18426;DHT22;9340;48.756;9.226;2024-01-15T13:58:26;2.90;99.90
18426;DHT22;9340;48.756;9.226;2024-01-15T14:00:52;2.80;99.90
18426;DHT22;9340;48.756;9.226;2024-01-15T14:03:20;2.80;99.90
18426;DHT22;9340;48.756;9.226;2024-01-15T14:05:47;2.80;99.90
18426;DHT22;9340;48.756;9.226;2024-01-15T14:08:14;2.80;99.90
18426;DHT22;9340;48.756;9.226;2024-01-15T14:10:41;2.90;99.90
18426;DHT22;9340;48.756;9.226;2024-01-15T14:13:08;2.70;99.90
18426;DHT22;9340;48.756;9.226;2024-01-15T14:15:35;2.70;99.90
18426;DHT22;9340;48.756;9.226;2024-01-15T14:18:02;2.80;99.90
18426;DHT22;9340;48.756;9.226;2024-01-15T14:20:30;2.90;99.90
18426;DHT22;9340;48.756;9.226;2024-01-15T14:22:57;2.90;99.90
18426;DHT22;9340;48.756;9.226;2024-01-15T14:25:23;2.90;99.90
18426;DHT22;9340;48.756;9.226;2024-01-15T14:27:50;2.90;99.90
18426;DHT22;9340;48.756;9.226;2024-01-15T14:30:17;3.00;99.90
18426;DHT22;9340;48.756;9.226;2024-01-15T14:32:44;3.00;99.90
18426;DHT22;9340;48.756;9.226;2024-01-15T14:35:10;3.10;99.90
18426;DHT22;9340;48.756;9.226;2024-01-15T14:37:38;3.10;99.90
18426;DHT22;9340;48.756;9.226;2024-01-15T14:40:07;3.10;99.90
18426;DHT22;9340;48.756;9.226;2024-01-15T14:42:34;3.00;99.90
18426;DHT22;9340;48.756;9.226;2024-01-15T14:45:02;2.90;99.90
18426;DHT22;9340;48.756;9.226;2024-01-15T14:47:30;2.60;99.90
18426;DHT22;9340;48.756;9.226;2024-01-15T14:49:57;2.50;99.90
18426;DHT22;9340;48.756;9.226;2024-01-15T14:52:24;2.50;99.90
18426;DHT22;9340;48.756;9.226;2024-01-15T14:54:52;2.50;99.90
18426;DHT22;9340;48.756;9.226;2024-01-15T14:57:18;2.50;99.90
18426;DHT22;9340;48.756;9.226;2024-01-15T14:59:45;2.40;99.90
18426;DHT22;9340;48.756;9.226;2024-01-15T15:02:12;2.20;99.90
18426;DHT22;9340;48.756;9.226;2024-01-15T15:04:40;2.20;99.90
18426;DHT22;9340;48.756;9.226;2024-01-15T15:07:07;2.20;99.90
18426;DHT22;9340;48.756;9.226;2024-01-15T15:09:35;2.10;99.90
18426;DHT22;9340;48.756;9.226;2024-01-15T15:12:04;2.00;99.90
18426;DHT22;9340;48.756;9.226;2024-01-15T15:14:32;2.10;99.90
18426;DHT22;9340;48.756;9.226;2024-01-15T15:17:03;2.20;99.90
18426;DHT22;9340;48.756;9.226;2024-01-15T15:19:30;2.20;99.90
18426;DHT22;9340;48.756;9.226;2024-01-15T15:21:56;2.20;99.90
18426;DHT22;9340;48.756;9.226;2024-01-15T15:24:23;2.20;99.90
18426;DHT22;9340;48.756;9.226;2024-01-15T15:26:50;2.20;99.90
18426;DHT22;9340;48.756;9.226;2024-01-15T15:29:18;2.10;99.90
18426;DHT22;9340;48.756;9.226;2024-01-15T15:31:45;2.10;99.90
18426;DHT22;9340;48.756;9.226;2024-01-15T15:34:14;2.10;99.90
18426;DHT22;9340;48.756;9.226;2024-01-15T15:36:42;2.10;99.90
18426;DHT22;9340;48.756;9.226;2024-01-15T15:39:08;2.20;99.90
18426;DHT22;9340;48.756;9.226;2024-01-15T15:41:36;2.20;99.90
18426;DHT22;9340;48.756;9.226;2024-01-15T15:44:03;2.20;99.90
18426;DHT22;9340;48.756;9.226;2024-01-15T15:46:31;2.20;99.90
18426;DHT22;9340;48.756;9.226;2024-01-15T15:48:58;2.20;99.90
18426;DHT22;9340;48.756;9.226;2024-01-15T15:51:25;2.20;99.90
18426;DHT22;9340;48.756;9.226;2024-01-15T15:53:51;2.10;99.90
18426;DHT22;9340;48.756;9.226;2024-01-15T15:56:18;2.10;99.90
18426;DHT22;9340;48.756;9.226;2024-01-15T15:58:44;2.00;99.90
18426;DHT22;9340;48.756;9.226;2024-01-15T16:01:11;2.00;99.90
18426;DHT22;9340;48.756;9.226;2024-01-15T16:03:39;2.00;99.90